sensor_id;sensor_type;location;lat;lon;timestamp;pressure;altitude;pressure_sealevel;temperature;humidity
50684;BME280;36654;45.042;38.994;2023-02-18T00:01:23;101419.03;;;4.52;90.95
50684;BME280;36654;45.042;38.994;2023-02-18T00:03:50;101439.50;;;4.60;90.54
50684;BME280;36654;45.042;38.994;2023-02-18T00:06:19;101430.78;;;4.61;90.24
50684;BME280;36654;45.042;38.994;2023-02-18T00:08:47;101410.41;;;4.55;90.11
50684;BME280;36654;45.042;38.994;2023-02-18T00:11:13;101428.28;;;4.64;89.69
50684;BME280;36654;45.042;38.994;2023-02-18T00:13:39;101428.28;;;4.64;89.51
50684;BME280;36654;45.042;38.994;2023-02-18T00:16:08;101429.41;;;4.69;89.42
50684;BME280;36654;45.042;38.994;2023-02-18T00:18:34;101416.00;;;4.63;89.30
50684;BME280;36654;45.042;38.994;2023-02-18T00:20:59;101432.88;;;4.68;89.11
50684;BME280;36654;45.042;38.994;2023-02-18T00:23:27;101411.84;;;4.68;88.79
50684;BME280;36654;45.042;38.994;2023-02-18T00:26:04;101404.06;;;4.69;88.92
50684;BME280;36654;45.042;38.994;2023-02-18T00:28:31;101401.25;;;4.66;88.78
50684;BME280;36654;45.042;38.994;2023-02-18T00:30:56;101415.16;;;4.64;88.91
50684;BME280;36654;45.042;38.994;2023-02-18T00:33:22;101401.22;;;4.65;88.86
50684;BME280;36654;45.042;38.994;2023-02-18T00:35:48;101374.94;;;4.45;88.93
50684;BME280;36654;45.042;38.994;2023-02-18T00:38:14;101398.03;;;4.72;89.05
50684;BME280;36654;45.042;38.994;2023-02-18T00:40:39;101405.06;;;4.73;89.61
50684;BME280;36654;45.042;38.994;2023-02-18T00:43:06;101412.97;;;4.73;90.37
50684;BME280;36654;45.042;38.994;2023-02-18T00:45:32;101409.44;;;4.72;90.98
50684;BME280;36654;45.042;38.994;2023-02-18T00:47:57;101405.06;;;4.73;91.36
50684;BME280;36654;45.042;38.994;2023-02-18T00:50:23;101417.25;;;4.71;91.91
50684;BME280;36654;45.042;38.994;2023-02-18T00:52:49;101414.59;;;4.71;92.24
50684;BME280;36654;45.042;38.994;2023-02-18T00:55:14;101417.25;;;4.71;92.58
50684;BME280;36654;45.042;38.994;2023-02-18T00:57:40;101352.69;;;4.37;92.90
50684;BME280;36654;45.042;38.994;2023-02-18T01:00:07;101420.75;;;4.71;93.28
50684;BME280;36654;45.042;38.994;2023-02-18T01:02:33;101418.88;;;4.69;93.64
50684;BME280;36654;45.042;38.994;2023-02-18T01:04:58;101409.50;;;4.74;93.92
50684;BME280;36654;45.042;38.994;2023-02-18T01:07:24;101369.81;;;4.68;93.98
50684;BME280;36654;45.042;38.994;2023-02-18T01:09:50;101396.34;;;4.74;93.73
50684;BME280;36654;45.042;38.994;2023-02-18T01:12:16;101385.81;;;4.72;93.87
50684;BME280;36654;45.042;38.994;2023-02-18T01:14:41;101383.44;;;4.79;93.75
50684;BME280;36654;45.042;38.994;2023-02-18T01:17:07;101379.34;;;4.66;93.67
50684;BME280;36654;45.042;38.994;2023-02-18T01:19:33;101306.53;;;4.23;93.76
50684;BME280;36654;45.042;38.994;2023-02-18T01:21:59;101429.81;;;4.78;93.89
50684;BME280;36654;45.042;38.994;2023-02-18T01:24:24;101404.31;;;4.75;94.07
50684;BME280;36654;45.042;38.994;2023-02-18T01:26:50;101405.06;;;4.73;94.08
50684;BME280;36654;45.042;38.994;2023-02-18T01:29:16;101354.59;;;4.41;94.18
50684;BME280;36654;45.042;38.994;2023-02-18T01:31:41;101398.84;;;4.71;94.37
50684;BME280;36654;45.042;38.994;2023-02-18T01:34:07;101394.03;;;4.80;94.19
50684;BME280;36654;45.042;38.994;2023-02-18T01:36:33;101408.94;;;4.81;94.38
50684;BME280;36654;45.042;38.994;2023-02-18T01:38:58;101404.66;;;4.83;94.38
50684;BME280;36654;45.042;38.994;2023-02-18T01:41:24;101410.00;;;4.85;93.82
50684;BME280;36654;45.042;38.994;2023-02-18T01:44:32;101398.72;;;4.87;93.76
50684;BME280;36654;45.042;38.994;2023-02-18T01:46:54;101399.31;;;4.82;93.56
50684;BME280;36654;45.042;38.994;2023-02-18T01:49:27;101408.25;;;4.85;93.90
50684;BME280;36654;45.042;38.994;2023-02-18T01:51:59;101402.94;;;4.84;93.53
50684;BME280;36654;45.042;38.994;2023-02-18T01:54:31;101418.09;;;4.89;93.72
50684;BME280;36654;45.042;38.994;2023-02-18T01:57:15;101417.03;;;4.86;93.37
50684;BME280;36654;45.042;38.994;2023-02-18T01:59:47;101426.78;;;4.88;93.34
50684;BME280;36654;45.042;38.994;2023-02-18T02:02:17;101416.28;;;4.88;93.23
50684;BME280;36654;45.042;38.994;2023-02-18T02:04:44;101418.78;;;4.85;93.44
50684;BME280;36654;45.042;38.994;2023-02-18T02:07:10;101424.88;;;4.84;93.51
50684;BME280;36654;45.042;38.994;2023-02-18T02:09:36;101443.94;;;4.80;93.57
50684;BME280;36654;45.042;38.994;2023-02-18T02:30:42;101450.72;;;4.75;94.23
50684;BME280;36654;45.042;38.994;2023-02-18T02:36:08;101455.06;;;4.74;93.71
50684;BME280;36654;45.042;38.994;2023-02-18T02:38:39;101465.50;;;4.73;93.81
50684;BME280;36654;45.042;38.994;2023-02-18T02:46:46;101471.59;;;4.72;93.58
50684;BME280;36654;45.042;38.994;2023-02-18T02:52:11;101463.75;;;4.73;93.75
50684;BME280;36654;45.042;38.994;2023-02-18T02:54:38;101448.13;;;4.57;93.53
50684;BME280;36654;45.042;38.994;2023-02-18T02:59:40;101476.13;;;4.76;93.46
50684;BME280;36654;45.042;38.994;2023-02-18T03:05:17;101455.41;;;4.82;93.71
50684;BME280;36654;45.042;38.994;2023-02-18T03:10:48;101464.41;;;4.87;93.40
50684;BME280;36654;45.042;38.994;2023-02-18T03:18:56;101452.28;;;4.91;92.76
50684;BME280;36654;45.042;38.994;2023-02-18T03:24:21;101445.53;;;4.96;92.15
50684;BME280;36654;45.042;38.994;2023-02-18T03:26:52;101449.13;;;4.98;91.65
50684;BME280;36654;45.042;38.994;2023-02-18T03:29:20;101435.34;;;5.04;91.40
50684;BME280;36654;45.042;38.994;2023-02-18T03:31:51;101434.25;;;4.98;91.06
50684;BME280;36654;45.042;38.994;2023-02-18T03:34:24;101448.84;;;5.11;91.01
50684;BME280;36654;45.042;38.994;2023-02-18T03:36:50;101446.06;;;5.08;90.44
50684;BME280;36654;45.042;38.994;2023-02-18T03:39:17;101465.69;;;5.16;90.27
50684;BME280;36654;45.042;38.994;2023-02-18T03:41:44;101456.13;;;5.17;90.07
50684;BME280;36654;45.042;38.994;2023-02-18T03:44:10;101446.28;;;5.13;89.96
50684;BME280;36654;45.042;38.994;2023-02-18T03:46:39;101465.09;;;5.22;89.34
50684;BME280;36654;45.042;38.994;2023-02-18T03:49:05;101466.75;;;5.20;88.79
50684;BME280;36654;45.042;38.994;2023-02-18T03:51:31;101453.50;;;5.17;88.10
50684;BME280;36654;45.042;38.994;2023-02-18T03:53:57;101451.13;;;5.23;87.43
50684;BME280;36654;45.042;38.994;2023-02-18T03:56:23;101449.59;;;5.28;87.43
50684;BME280;36654;45.042;38.994;2023-02-18T03:58:48;101457.44;;;5.27;87.57
50684;BME280;36654;45.042;38.994;2023-02-18T04:01:14;101454.78;;;5.27;86.80
50684;BME280;36654;45.042;38.994;2023-02-18T04:03:40;101467.19;;;5.29;86.35
50684;BME280;36654;45.042;38.994;2023-02-18T04:06:06;101448.63;;;5.26;86.19
50684;BME280;36654;45.042;38.994;2023-02-18T04:08:32;101436.09;;;5.21;86.10
50684;BME280;36654;45.042;38.994;2023-02-18T04:10:57;101433.81;;;5.28;85.74
50684;BME280;36654;45.042;38.994;2023-02-18T04:13:23;101440.72;;;5.26;85.36
50684;BME280;36654;45.042;38.994;2023-02-18T04:15:50;101392.50;;;5.05;84.95
50684;BME280;36654;45.042;38.994;2023-02-18T04:18:16;101415.84;;;5.18;84.39
50684;BME280;36654;45.042;38.994;2023-02-18T04:20:42;101442.91;;;5.36;83.92
50684;BME280;36654;45.042;38.994;2023-02-18T04:23:08;101451.53;;;5.32;83.69
50684;BME280;36654;45.042;38.994;2023-02-18T04:25:34;101452.53;;;5.36;82.54
50684;BME280;36654;45.042;38.994;2023-02-18T04:27:59;101455.25;;;5.37;82.34
50684;BME280;36654;45.042;38.994;2023-02-18T04:30:25;101445.63;;;5.38;82.07
50684;BME280;36654;45.042;38.994;2023-02-18T04:32:51;101460.50;;;5.37;81.98
50684;BME280;36654;45.042;38.994;2023-02-18T04:35:17;101463.84;;;5.33;81.89
50684;BME280;36654;45.042;38.994;2023-02-18T04:37:42;101468.41;;;5.37;81.33
50684;BME280;36654;45.042;38.994;2023-02-18T04:40:08;101472.81;;;5.38;81.28
50684;BME280;36654;45.042;38.994;2023-02-18T04:42:35;101472.78;;;5.37;81.31
50684;BME280;36654;45.042;38.994;2023-02-18T04:45:01;101457.59;;;5.31;81.43
50684;BME280;36654;45.042;38.994;2023-02-18T04:47:26;101462.03;;;5.32;80.92
50684;BME280;36654;45.042;38.994;2023-02-18T04:49:52;101466.34;;;5.30;80.77
50684;BME280;36654;45.042;38.994;2023-02-18T04:52:18;101447.50;;;5.21;80.49
50684;BME280;36654;45.042;38.994;2023-02-18T04:54:43;101470.38;;;5.22;80.36
50684;BME280;36654;45.042;38.994;2023-02-18T04:57:09;101468.50;;;5.19;80.74
50684;BME280;36654;45.042;38.994;2023-02-18T04:59:35;101468.41;;;5.18;80.83
50684;BME280;36654;45.042;38.994;2023-02-18T05:02:01;101480.59;;;5.16;81.05
50684;BME280;36654;45.042;38.994;2023-02-18T05:04:26;101476.94;;;5.12;81.28
50684;BME280;36654;45.042;38.994;2023-02-18T05:06:52;101474.97;;;5.08;81.78
50684;BME280;36654;45.042;38.994;2023-02-18T05:09:17;101476.72;;;5.08;81.99
50684;BME280;36654;45.042;38.994;2023-02-18T05:11:44;101460.66;;;5.02;82.28
50684;BME280;36654;45.042;38.994;2023-02-18T05:14:10;101462.34;;;5.00;82.51
50684;BME280;36654;45.042;38.994;2023-02-18T05:16:35;101443.94;;;4.80;83.17
50684;BME280;36654;45.042;38.994;2023-02-18T05:19:01;101468.28;;;4.95;83.41
50684;BME280;36654;45.042;38.994;2023-02-18T05:21:27;101462.19;;;4.96;83.80
50684;BME280;36654;45.042;38.994;2023-02-18T05:23:52;101456.91;;;4.96;84.02
50684;BME280;36654;45.042;38.994;2023-02-18T05:26:18;101465.72;;;4.97;84.17
50684;BME280;36654;45.042;38.994;2023-02-18T05:28:43;101465.78;;;4.98;84.29
50684;BME280;36654;45.042;38.994;2023-02-18T05:31:09;101458.59;;;4.94;84.62
50684;BME280;36654;45.042;38.994;2023-02-18T05:33:34;101448.09;;;4.94;84.76
50684;BME280;36654;45.042;38.994;2023-02-18T05:36:00;101429.69;;;4.75;85.08
50684;BME280;36654;45.042;38.994;2023-02-18T05:38:26;101447.03;;;4.91;85.18
50684;BME280;36654;45.042;38.994;2023-02-18T05:40:51;101439.03;;;4.88;85.23
50684;BME280;36654;45.042;38.994;2023-02-18T05:43:17;101446.28;;;4.93;85.33
50684;BME280;36654;45.042;38.994;2023-02-18T05:45:43;101456.66;;;4.90;85.69
50684;BME280;36654;45.042;38.994;2023-02-18T05:48:08;101446.41;;;4.96;85.67
50684;BME280;36654;45.042;38.994;2023-02-18T05:50:34;101433.00;;;4.90;85.74
50684;BME280;36654;45.042;38.994;2023-02-18T05:53:00;101445.38;;;4.93;85.88
50684;BME280;36654;45.042;38.994;2023-02-18T05:55:25;101444.84;;;5.00;85.90
50684;BME280;36654;45.042;38.994;2023-02-18T05:57:51;101459.09;;;5.05;85.82
50684;BME280;36654;45.042;38.994;2023-02-18T06:00:17;101408.06;;;4.81;85.66
50684;BME280;36654;45.042;38.994;2023-02-18T06:02:43;101445.06;;;5.05;85.67
50684;BME280;36654;45.042;38.994;2023-02-18T06:05:09;101443.53;;;5.10;85.63
50684;BME280;36654;45.042;38.994;2023-02-18T06:07:35;101457.47;;;5.09;85.36
50684;BME280;36654;45.042;38.994;2023-02-18T06:10:01;101416.28;;;4.88;85.23
50684;BME280;36654;45.042;38.994;2023-02-18T06:12:26;101445.44;;;5.14;85.21
50684;BME280;36654;45.042;38.994;2023-02-18T06:14:52;101439.78;;;5.05;85.20
50684;BME280;36654;45.042;38.994;2023-02-18T06:17:18;101455.00;;;5.12;85.10
50684;BME280;36654;45.042;38.994;2023-02-18T06:19:44;101428.66;;;5.10;84.97
50684;BME280;36654;45.042;38.994;2023-02-18T06:22:10;101413.34;;;5.02;84.69
50684;BME280;36654;45.042;38.994;2023-02-18T06:24:36;101442.13;;;5.18;84.60
50684;BME280;36654;45.042;38.994;2023-02-18T06:27:03;101430.44;;;5.11;84.33
50684;BME280;36654;45.042;38.994;2023-02-18T06:29:29;101435.22;;;5.20;84.29
50684;BME280;36654;45.042;38.994;2023-02-18T06:31:56;101430.22;;;5.26;83.86
50684;BME280;36654;45.042;38.994;2023-02-18T06:34:22;101425.66;;;5.22;83.90
50684;BME280;36654;45.042;38.994;2023-02-18T06:36:47;101430.09;;;5.23;83.76
50684;BME280;36654;45.042;38.994;2023-02-18T06:39:13;101432.28;;;5.33;83.41
50684;BME280;36654;45.042;38.994;2023-02-18T06:41:38;101368.75;;;5.03;83.10
50684;BME280;36654;45.042;38.994;2023-02-18T06:44:05;101419.84;;;5.29;83.04
50684;BME280;36654;45.042;38.994;2023-02-18T06:46:30;101414.44;;;5.26;82.80
50684;BME280;36654;45.042;38.994;2023-02-18T06:48:56;101357.88;;;5.15;82.64
50684;BME280;36654;45.042;38.994;2023-02-18T06:51:23;101420.88;;;5.54;82.48
50684;BME280;36654;45.042;38.994;2023-02-18T06:53:48;101408.00;;;5.60;82.21
50684;BME280;36654;45.042;38.994;2023-02-18T06:56:14;101395.34;;;5.51;81.83
50684;BME280;36654;45.042;38.994;2023-02-18T06:58:40;101388.69;;;5.59;82.02
50684;BME280;36654;45.042;38.994;2023-02-18T07:01:05;101394.97;;;5.63;81.53
50684;BME280;36654;45.042;38.994;2023-02-18T07:03:31;101406.59;;;5.68;81.59
50684;BME280;36654;45.042;38.994;2023-02-18T07:05:57;101408.41;;;5.69;81.48
50684;BME280;36654;45.042;38.994;2023-02-18T07:08:23;101411.06;;;5.71;81.84
50684;BME280;36654;45.042;38.994;2023-02-18T07:10:48;101418.19;;;5.73;81.97
50684;BME280;36654;45.042;38.994;2023-02-18T07:13:14;101412.16;;;5.76;82.21
50684;BME280;36654;45.042;38.994;2023-02-18T07:15:40;101411.28;;;5.75;82.16
50684;BME280;36654;45.042;38.994;2023-02-18T07:18:06;101411.03;;;5.69;82.41
50684;BME280;36654;45.042;38.994;2023-02-18T07:20:31;101420.00;;;5.74;82.72
50684;BME280;36654;45.042;38.994;2023-02-18T07:22:57;101402.41;;;5.73;82.77
50684;BME280;36654;45.042;38.994;2023-02-18T07:25:24;101428.72;;;5.73;82.66
50684;BME280;36654;45.042;38.994;2023-02-18T07:27:53;101397.41;;;5.58;82.89
50684;BME280;36654;45.042;38.994;2023-02-18T07:30:22;101421.66;;;5.72;83.08
50684;BME280;36654;45.042;38.994;2023-02-18T07:32:56;101410.06;;;5.67;83.43
50684;BME280;36654;45.042;38.994;2023-02-18T07:35:27;101359.06;;;5.43;83.46
50684;BME280;36654;45.042;38.994;2023-02-18T07:37:56;101403.94;;;5.68;83.29
50684;BME280;36654;45.042;38.994;2023-02-18T07:40:22;101397.03;;;5.70;83.24
50684;BME280;36654;45.042;38.994;2023-02-18T07:42:48;101396.25;;;5.73;83.33
50684;BME280;36654;45.042;38.994;2023-02-18T07:45:17;101391.06;;;5.74;83.26
50684;BME280;36654;45.042;38.994;2023-02-18T07:47:42;101396.75;;;5.85;83.33
50684;BME280;36654;45.042;38.994;2023-02-18T07:50:10;101399.59;;;5.90;83.28
50684;BME280;36654;45.042;38.994;2023-02-18T07:52:35;101364.88;;;5.77;83.16
50684;BME280;36654;45.042;38.994;2023-02-18T07:55:28;101387.88;;;6.04;83.63
50684;BME280;36654;45.042;38.994;2023-02-18T07:58:12;101369.94;;;6.16;83.34
50684;BME280;36654;45.042;38.994;2023-02-18T08:00:40;101385.28;;;6.26;83.36
50684;BME280;36654;45.042;38.994;2023-02-18T08:03:06;101363.59;;;6.34;82.82
50684;BME280;36654;45.042;38.994;2023-02-18T08:05:31;101369.72;;;6.33;82.52
50684;BME280;36654;45.042;38.994;2023-02-18T08:07:57;101373.66;;;6.44;82.31
50684;BME280;36654;45.042;38.994;2023-02-18T08:10:22;101320.28;;;6.25;82.12
50684;BME280;36654;45.042;38.994;2023-02-18T08:12:48;101370.75;;;6.60;81.89
50684;BME280;36654;45.042;38.994;2023-02-18T08:15:14;101361.41;;;6.68;81.58
50684;BME280;36654;45.042;38.994;2023-02-18T08:17:39;101306.25;;;6.49;81.33
50684;BME280;36654;45.042;38.994;2023-02-18T08:20:06;101349.97;;;6.92;81.28
50684;BME280;36654;45.042;38.994;2023-02-18T08:22:32;101332.84;;;7.05;81.05
50684;BME280;36654;45.042;38.994;2023-02-18T08:24:57;101294.28;;;6.83;80.26
50684;BME280;36654;45.042;38.994;2023-02-18T08:27:23;101297.19;;;6.90;80.14
50684;BME280;36654;45.042;38.994;2023-02-18T08:29:49;101334.16;;;7.18;80.10
50684;BME280;36654;45.042;38.994;2023-02-18T08:32:14;101298.22;;;6.94;79.96
50684;BME280;36654;45.042;38.994;2023-02-18T08:34:40;101285.84;;;6.93;80.28
50684;BME280;36654;45.042;38.994;2023-02-18T08:37:06;101325.38;;;7.19;80.23
50684;BME280;36654;45.042;38.994;2023-02-18T08:39:37;101291.53;;;7.05;80.23
50684;BME280;36654;45.042;38.994;2023-02-18T08:42:04;101318.66;;;7.27;79.67
50684;BME280;36654;45.042;38.994;2023-02-18T08:44:29;101320.69;;;7.35;79.54
50684;BME280;36654;45.042;38.994;2023-02-18T08:46:55;101303.03;;;7.33;79.02
50684;BME280;36654;45.042;38.994;2023-02-18T08:49:21;101301.28;;;7.33;79.18
50684;BME280;36654;45.042;38.994;2023-02-18T08:51:51;101300.47;;;7.36;79.35
50684;BME280;36654;45.042;38.994;2023-02-18T08:54:17;101289.03;;;7.35;79.54
50684;BME280;36654;45.042;38.994;2023-02-18T08:56:43;101298.75;;;7.37;79.61
50684;BME280;36654;45.042;38.994;2023-02-18T08:59:08;101302.47;;;7.43;79.86
50684;BME280;36654;45.042;38.994;2023-02-18T09:01:34;101286.50;;;7.39;79.92
50684;BME280;36654;45.042;38.994;2023-02-18T09:04:00;101288.09;;;7.33;80.21
50684;BME280;36654;45.042;38.994;2023-02-18T09:06:25;101285.31;;;7.29;80.40
50684;BME280;36654;45.042;38.994;2023-02-18T09:08:51;101278.88;;;7.21;80.42
50684;BME280;36654;45.042;38.994;2023-02-18T09:11:17;101283.50;;;7.28;80.88
50684;BME280;36654;45.042;38.994;2023-02-18T09:13:44;101278.25;;;7.28;80.81
50684;BME280;36654;45.042;38.994;2023-02-18T09:16:12;101268.56;;;7.27;80.77
50684;BME280;36654;45.042;38.994;2023-02-18T09:18:39;101195.84;;;7.08;80.64
50684;BME280;36654;45.042;38.994;2023-02-18T09:21:06;101252.09;;;7.34;80.34
50684;BME280;36654;45.042;38.994;2023-02-18T09:23:34;101218.72;;;7.36;79.58
50684;BME280;36654;45.042;38.994;2023-02-18T09:26:03;101236.53;;;7.43;79.39
50684;BME280;36654;45.042;38.994;2023-02-18T09:28:29;101219.41;;;7.57;78.90
50684;BME280;36654;45.042;38.994;2023-02-18T09:30:55;101200.44;;;7.71;77.86
50684;BME280;36654;45.042;38.994;2023-02-18T09:33:21;101206.38;;;7.92;77.07
50684;BME280;36654;45.042;38.994;2023-02-18T09:35:49;101194.84;;;7.89;76.43
50684;BME280;36654;45.042;38.994;2023-02-18T09:38:16;101151.25;;;7.73;76.48
50684;BME280;36654;45.042;38.994;2023-02-18T09:40:48;101212.19;;;8.11;75.70
50684;BME280;36654;45.042;38.994;2023-02-18T09:43:32;101215.97;;;8.19;75.55
50684;BME280;36654;45.042;38.994;2023-02-18T09:46:03;101204.44;;;8.17;75.13
50684;BME280;36654;45.042;38.994;2023-02-18T09:48:35;101117.88;;;7.75;74.80
50684;BME280;36654;45.042;38.994;2023-02-18T09:51:04;101199.16;;;8.17;74.67
50684;BME280;36654;45.042;38.994;2023-02-18T09:53:30;101194.63;;;8.13;73.88
50684;BME280;36654;45.042;38.994;2023-02-18T09:55:56;101180.41;;;8.08;73.52
50684;BME280;36654;45.042;38.994;2023-02-18T09:58:29;101123.00;;;7.69;73.73
50684;BME280;36654;45.042;38.994;2023-02-18T10:01:38;101161.94;;;8.08;73.67
50684;BME280;36654;45.042;38.994;2023-02-18T10:03:44;101150.53;;;8.09;73.45
50684;BME280;36654;45.042;38.994;2023-02-18T10:06:15;101148.09;;;8.16;72.88
50684;BME280;36654;45.042;38.994;2023-02-18T10:08:45;101159.56;;;8.18;72.48
50684;BME280;36654;45.042;38.994;2023-02-18T10:11:14;101167.81;;;8.29;71.06
50684;BME280;36654;45.042;38.994;2023-02-18T10:13:41;101163.53;;;8.34;70.99
50684;BME280;36654;45.042;38.994;2023-02-18T10:16:08;101143.84;;;8.23;71.00
50684;BME280;36654;45.042;38.994;2023-02-18T10:18:42;101107.22;;;8.02;70.67
50684;BME280;36654;45.042;38.994;2023-02-18T10:21:14;101152.09;;;8.34;70.13
50684;BME280;36654;45.042;38.994;2023-02-18T10:24:46;101135.59;;;8.42;69.52
50684;BME280;36654;45.042;38.994;2023-02-18T10:26:46;101134.75;;;8.43;68.04
50684;BME280;36654;45.042;38.994;2023-02-18T10:29:15;101116.34;;;8.47;67.02
50684;BME280;36654;45.042;38.994;2023-02-18T10:48:27;101110.13;;;8.81;62.06
50684;BME280;36654;45.042;38.994;2023-02-18T10:51:05;101071.94;;;8.68;60.88
50684;BME280;36654;45.042;38.994;2023-02-18T10:53:41;101100.63;;;8.88;60.26
50684;BME280;36654;45.042;38.994;2023-02-18T10:56:31;101057.97;;;8.72;60.45
50684;BME280;36654;45.042;38.994;2023-02-18T10:59:25;101065.94;;;8.75;59.70
50684;BME280;36654;45.042;38.994;2023-02-18T11:01:59;101053.53;;;8.71;60.17
50684;BME280;36654;45.042;38.994;2023-02-18T11:04:37;101104.84;;;8.79;60.57
50684;BME280;36654;45.042;38.994;2023-02-18T11:07:07;101085.41;;;8.77;60.81
50684;BME280;36654;45.042;38.994;2023-02-18T11:14:45;101079.00;;;8.68;62.48
50684;BME280;36654;45.042;38.994;2023-02-18T11:17:27;101040.16;;;8.65;62.87
50684;BME280;36654;45.042;38.994;2023-02-18T11:19:59;101055.94;;;8.62;61.79
50684;BME280;36654;45.042;38.994;2023-02-18T11:22:32;101067.28;;;8.58;62.09
50684;BME280;36654;45.042;38.994;2023-02-18T11:25:01;101047.78;;;8.53;62.27
50684;BME280;36654;45.042;38.994;2023-02-18T11:27:40;101042.44;;;8.50;62.54
50684;BME280;36654;45.042;38.994;2023-02-18T11:30:20;101021.72;;;8.33;63.03
50684;BME280;36654;45.042;38.994;2023-02-18T11:32:56;101043.06;;;8.39;63.40
50684;BME280;36654;45.042;38.994;2023-02-18T11:35:27;101047.34;;;8.36;63.95
50684;BME280;36654;45.042;38.994;2023-02-18T11:37:56;101056.28;;;8.39;64.78
50684;BME280;36654;45.042;38.994;2023-02-18T11:40:34;101041.72;;;8.22;64.79
50684;BME280;36654;45.042;38.994;2023-02-18T11:45:33;101058.69;;;8.32;64.44
50684;BME280;36654;45.042;38.994;2023-02-18T11:48:15;101051.97;;;8.10;64.64
50684;BME280;36654;45.042;38.994;2023-02-18T11:50:41;101009.25;;;7.91;64.83
50684;BME280;36654;45.042;38.994;2023-02-18T11:53:37;101087.34;;;8.16;64.88
50684;BME280;36654;45.042;38.994;2023-02-18T11:56:17;101037.34;;;7.89;64.67
50684;BME280;36654;45.042;38.994;2023-02-18T11:58:47;100991.06;;;7.69;65.11
50684;BME280;36654;45.042;38.994;2023-02-18T12:04:07;101021.00;;;7.71;65.52
50684;BME280;36654;45.042;38.994;2023-02-18T12:06:37;101042.16;;;8.06;65.83
50684;BME280;36654;45.042;38.994;2023-02-18T12:12:17;101082.66;;;8.06;66.50
50684;BME280;36654;45.042;38.994;2023-02-18T12:14:44;101014.00;;;7.73;67.01
50684;BME280;36654;45.042;38.994;2023-02-18T12:17:20;101053.50;;;8.02;67.68
50684;BME280;36654;45.042;38.994;2023-02-18T12:22:45;101062.13;;;7.94;68.82
50684;BME280;36654;45.042;38.994;2023-02-18T12:34:40;100976.25;;;7.42;71.34
50684;BME280;36654;45.042;38.994;2023-02-18T12:42:50;101013.34;;;7.48;73.15
50684;BME280;36654;45.042;38.994;2023-02-18T12:48:14;100991.25;;;7.45;74.34
50684;BME280;36654;45.042;38.994;2023-02-18T12:50:57;100980.63;;;7.42;74.56
50684;BME280;36654;45.042;38.994;2023-02-18T12:53:48;100969.94;;;7.37;74.64
50684;BME280;36654;45.042;38.994;2023-02-18T13:05:17;100983.59;;;7.22;75.46
50684;BME280;36654;45.042;38.994;2023-02-18T13:13:08;100998.34;;;7.16;75.48
50684;BME280;36654;45.042;38.994;2023-02-18T13:15:37;100980.53;;;7.08;75.49
50684;BME280;36654;45.042;38.994;2023-02-18T13:18:10;100916.41;;;6.78;75.47
50684;BME280;36654;45.042;38.994;2023-02-18T13:20:48;100967.78;;;6.92;75.83
50684;BME280;36654;45.042;38.994;2023-02-18T13:23:30;100968.94;;;7.02;75.73
50684;BME280;36654;45.042;38.994;2023-02-18T13:26:00;100956.56;;;6.99;75.98
50684;BME280;36654;45.042;38.994;2023-02-18T13:31:23;100949.47;;;6.97;76.14
50684;BME280;36654;45.042;38.994;2023-02-18T13:39:33;100941.16;;;6.83;76.95
50684;BME280;36654;45.042;38.994;2023-02-18T13:47:40;100934.09;;;6.82;77.87
50684;BME280;36654;45.042;38.994;2023-02-18T13:50:39;100860.31;;;6.52;78.36
50684;BME280;36654;45.042;38.994;2023-02-18T13:58:40;100920.78;;;6.77;79.00
50684;BME280;36654;45.042;38.994;2023-02-18T14:06:19;100880.25;;;6.74;80.11
50684;BME280;36654;45.042;38.994;2023-02-18T14:08:45;100841.47;;;6.38;80.52
50684;BME280;36654;45.042;38.994;2023-02-18T14:13:46;100884.38;;;6.64;80.97
50684;BME280;36654;45.042;38.994;2023-02-18T14:16:14;100846.44;;;6.29;80.92
50684;BME280;36654;45.042;38.994;2023-02-18T14:28:52;100842.94;;;6.58;81.92
50684;BME280;36654;45.042;38.994;2023-02-18T14:31:34;100855.34;;;6.62;82.19
50684;BME280;36654;45.042;38.994;2023-02-18T14:50:33;100828.00;;;6.57;83.04
50684;BME280;36654;45.042;38.994;2023-02-18T14:53:07;100823.59;;;6.58;83.27
50684;BME280;36654;45.042;38.994;2023-02-18T14:55:40;100821.84;;;6.57;83.31
50684;BME280;36654;45.042;38.994;2023-02-18T14:58:36;100775.22;;;6.24;83.67
50684;BME280;36654;45.042;38.994;2023-02-18T15:01:06;100812.00;;;6.51;84.14
50684;BME280;36654;45.042;38.994;2023-02-18T15:03:39;100808.47;;;6.51;84.28
50684;BME280;36654;45.042;38.994;2023-02-18T15:08:52;100794.50;;;6.53;84.26
50684;BME280;36654;45.042;38.994;2023-02-18T15:11:20;100740.09;;;6.23;84.29
50684;BME280;36654;45.042;38.994;2023-02-18T15:13:49;100785.84;;;6.57;84.59
50684;BME280;36654;45.042;38.994;2023-02-18T15:16:29;100791.13;;;6.57;84.55
50684;BME280;36654;45.042;38.994;2023-02-18T15:18:59;100722.69;;;6.27;84.58
50684;BME280;36654;45.042;38.994;2023-02-18T15:21:39;100714.78;;;6.27;84.74
50684;BME280;36654;45.042;38.994;2023-02-18T15:24:08;100741.13;;;6.29;84.67
50684;BME280;36654;45.042;38.994;2023-02-18T15:26:41;100796.38;;;6.57;84.93
50684;BME280;36654;45.042;38.994;2023-02-18T15:29:17;100774.25;;;6.51;84.83
50684;BME280;36654;45.042;38.994;2023-02-18T15:31:45;100784.16;;;6.59;85.05
50684;BME280;36654;45.042;38.994;2023-02-18T15:34:37;100786.88;;;6.64;84.87
50684;BME280;36654;45.042;38.994;2023-02-18T15:37:06;100800.13;;;6.65;84.98
50684;BME280;36654;45.042;38.994;2023-02-18T15:39:33;100796.59;;;6.65;84.94
50684;BME280;36654;45.042;38.994;2023-02-18T15:47:34;100791.53;;;6.73;84.88
50684;BME280;36654;45.042;38.994;2023-02-18T15:50:00;100792.44;;;6.73;84.98
50684;BME280;36654;45.042;38.994;2023-02-18T15:52:30;100788.84;;;6.71;84.82
50684;BME280;36654;45.042;38.994;2023-02-18T15:55:03;100806.47;;;6.74;84.99